createdAt,value
2022-08-17T00:00:34.460Z,4.38
2022-08-17T00:05:41.953Z,4.88
2022-08-17T00:10:45.390Z,4.22
2022-08-17T00:15:47.299Z,4.47
2022-08-17T00:20:48.870Z,4.55
2022-08-17T00:25:50.432Z,4.38
2022-08-17T00:30:53.339Z,3.90
2022-08-17T00:35:55.887Z,4.03
2022-08-17T00:41:00.294Z,4.32
2022-08-17T00:46:07.412Z,4.22
2022-08-17T00:51:44.747Z,4.35
2022-08-17T00:56:48.487Z,4.03
2022-08-17T01:01:50.985Z,4.13
2022-08-17T01:06:53.259Z,4.00
2022-08-17T01:11:54.836Z,3.90
2022-08-17T01:16:56.591Z,4.60
2022-08-17T01:22:14.388Z,4.22
2022-08-17T01:27:18.436Z,4.18
2022-08-17T01:32:22.189Z,4.30
2022-08-17T01:37:31.133Z,4.18
2022-08-17T01:42:46.429Z,4.00
2022-08-17T01:47:48.032Z,4.30
2022-08-17T01:52:52.180Z,4.60
2022-08-17T01:57:53.892Z,4.30
2022-08-17T02:02:55.660Z,4.63
2022-08-17T02:08:00.456Z,4.28
2022-08-17T02:13:04.190Z,4.45
2022-08-17T02:18:06.366Z,4.40
2022-08-17T02:23:08.976Z,4.60
2022-08-17T02:28:10.842Z,4.38
2022-08-17T02:33:12.456Z,4.70
2022-08-17T02:38:14.627Z,4.53
2022-08-17T02:43:16.332Z,4.68
2022-08-17T02:48:30.565Z,4.25
2022-08-17T02:53:35.888Z,7.18
2022-08-17T02:58:38.002Z,7.15
2022-08-17T03:03:39.984Z,6.65
2022-08-17T03:08:41.569Z,6.57
2022-08-17T03:13:43.179Z,5.72
2022-08-17T03:18:44.736Z,5.60
2022-08-17T03:23:46.273Z,4.80
2022-08-17T03:28:47.836Z,4.57
2022-08-17T03:33:49.368Z,4.80
2022-08-17T03:38:51.064Z,4.47
2022-08-17T03:43:52.716Z,4.82
2022-08-17T03:49:13.127Z,4.90
2022-08-17T03:54:33.163Z,4.78
2022-08-17T03:59:35.493Z,4.70
2022-08-17T04:04:38.153Z,5.50
2022-08-17T04:09:39.699Z,5.40
2022-08-17T04:14:52.909Z,5.05
2022-08-17T04:19:56.629Z,4.97
2022-08-17T04:24:58.854Z,5.13
2022-08-17T04:30:01.010Z,4.75
2022-08-17T04:35:02.556Z,5.28
2022-08-17T04:40:23.027Z,5.30
2022-08-17T04:45:28.098Z,6.18
2022-08-17T04:50:35.613Z,5.20
2022-08-17T04:55:37.435Z,4.95
2022-08-17T05:00:39.387Z,5.55
2022-08-17T05:05:49.448Z,5.07
2022-08-17T05:10:52.018Z,5.00
2022-08-17T05:15:59.206Z,6.38
2022-08-17T05:21:00.863Z,5.38
2022-08-17T05:26:02.586Z,5.20
2022-08-17T05:31:04.319Z,5.28
2022-08-17T05:36:08.147Z,5.60
2022-08-17T05:41:10.855Z,5.47
2022-08-17T05:46:20.509Z,4.80
2022-08-17T05:51:49.434Z,4.88
2022-08-17T05:57:12.119Z,5.43
2022-08-17T06:02:48.031Z,4.95
2022-08-17T06:07:54.139Z,4.57
2022-08-17T06:13:14.502Z,4.80
2022-08-17T06:18:19.234Z,4.80
2022-08-17T06:23:37.850Z,4.90
2022-08-17T06:28:52.122Z,7.70
2022-08-17T06:33:54.152Z,4.80
2022-08-17T06:39:17.150Z,4.50
2022-08-17T06:44:43.421Z,5.00
2022-08-17T06:50:20.475Z,5.03
2022-08-17T06:55:38.265Z,4.65
2022-08-17T07:00:42.277Z,5.15
2022-08-17T07:05:48.539Z,5.00
2022-08-17T07:10:56.836Z,5.07
2022-08-17T07:16:14.670Z,4.57
2022-08-17T07:21:33.814Z,5.28
2022-08-17T07:26:35.446Z,4.30
2022-08-17T07:31:37.283Z,4.65
2022-08-17T07:36:38.869Z,4.30
2022-08-17T07:41:53.378Z,4.50
2022-08-17T07:47:19.293Z,4.30
2022-08-17T07:52:50.752Z,5.10
2022-08-17T07:57:57.319Z,4.55
2022-08-17T08:03:11.583Z,4.68
2022-08-17T08:08:30.462Z,4.15
2022-08-17T08:13:32.435Z,6.43
2022-08-17T08:18:55.382Z,6.07
2022-08-17T08:24:13.023Z,4.00
2022-08-17T08:29:49.639Z,3.92
2022-08-17T08:35:22.658Z,3.80
2022-08-17T08:40:59.672Z,4.22
2022-08-17T08:46:36.861Z,4.25
2022-08-17T08:51:57.704Z,4.68
2022-08-17T08:57:32.923Z,4.45
2022-08-17T09:02:51.019Z,4.20
2022-08-17T09:08:23.564Z,4.25
2022-08-17T09:13:41.848Z,4.47
2022-08-17T09:19:02.448Z,5.10
2022-08-17T09:24:14.614Z,3.20
2022-08-17T09:29:26.382Z,3.70
2022-08-17T09:34:43.600Z,3.83
2022-08-17T09:39:58.606Z,3.10
2022-08-17T09:45:24.109Z,3.88
2022-08-17T09:51:03.224Z,3.80
2022-08-17T09:56:26.362Z,4.10
2022-08-17T10:01:38.420Z,2.95
2022-08-17T10:06:58.920Z,2.88
2022-08-17T10:12:20.484Z,2.88
2022-08-17T10:17:31.396Z,3.00
2022-08-17T10:23:02.318Z,2.50
2022-08-17T10:28:19.648Z,2.53
2022-08-17T10:33:26.040Z,3.10
2022-08-17T10:38:34.211Z,3.67
2022-08-17T10:44:38.632Z,4.75
2022-08-17T10:49:15.849Z,2.85
2022-08-17T10:54:41.696Z,3.15
2022-08-17T10:59:43.178Z,2.83
2022-08-17T11:05:06.300Z,3.08
2022-08-17T11:10:42.219Z,3.05
2022-08-17T11:15:47.392Z,3.00
2022-08-17T11:21:24.220Z,2.70
2022-08-17T11:26:29.679Z,2.90
2022-08-17T11:31:41.150Z,3.10
2022-08-17T11:36:48.902Z,2.92
2022-08-17T11:42:01.529Z,2.70
2022-08-17T11:47:28.810Z,2.67
2022-08-17T11:52:46.836Z,2.30
2022-08-17T11:58:00.195Z,2.63
2022-08-17T12:03:31.852Z,2.75
2022-08-17T12:08:34.379Z,4.45
2022-08-17T12:13:43.522Z,4.47
2022-08-17T12:19:02.287Z,3.55
2022-08-17T12:24:31.293Z,2.60
2022-08-17T12:29:38.345Z,2.92
2022-08-17T12:34:42.181Z,2.60
2022-08-17T12:39:57.320Z,2.63
2022-08-17T12:44:59.030Z,2.53
2022-08-17T12:50:29.885Z,2.47
2022-08-17T12:55:36.640Z,2.28
2022-08-17T13:00:47.395Z,2.50
2022-08-17T13:05:52.054Z,3.50
2022-08-17T13:10:56.531Z,2.55
2022-08-17T13:16:05.008Z,4.18
2022-08-17T13:21:33.066Z,3.17
2022-08-17T13:26:37.846Z,2.72
2022-08-17T13:31:53.019Z,2.70
2022-08-17T13:37:29.801Z,2.65
2022-08-17T13:42:50.184Z,2.78
2022-08-17T13:48:16.396Z,2.70
2022-08-17T13:53:34.005Z,2.50
2022-08-17T13:58:38.277Z,4.05
2022-08-17T14:03:39.818Z,4.50
2022-08-17T14:08:43.722Z,7.05
2022-08-17T14:13:46.646Z,4.07
2022-08-17T14:18:56.829Z,2.70
2022-08-17T14:23:58.910Z,3.80
2022-08-17T14:29:00.518Z,2.70
2022-08-17T14:34:02.214Z,2.90
2022-08-17T14:39:05.199Z,2.83
2022-08-17T14:44:07.197Z,2.70
2022-08-17T14:49:10.797Z,3.28
2022-08-17T14:54:25.649Z,2.58
2022-08-17T14:59:35.611Z,3.00
2022-08-17T15:04:39.845Z,2.70
2022-08-17T15:09:45.581Z,2.80
2022-08-17T15:14:47.148Z,2.63
2022-08-17T15:19:48.758Z,2.60
2022-08-17T15:24:50.307Z,2.80
2022-08-17T15:29:51.846Z,2.92
2022-08-17T15:34:56.762Z,2.65
2022-08-17T15:40:00.705Z,2.85
2022-08-17T15:45:11.484Z,2.88
2022-08-17T15:50:13.049Z,2.72
2022-08-17T15:55:14.911Z,2.40
2022-08-17T16:00:17.352Z,2.92
2022-08-17T16:05:24.067Z,2.67
2022-08-17T16:10:35.102Z,2.75
2022-08-17T16:15:38.085Z,2.60
2022-08-17T16:20:39.667Z,2.60
2022-08-17T16:25:53.872Z,3.28
2022-08-17T16:30:55.893Z,3.20
2022-08-17T16:35:57.461Z,2.50
2022-08-17T16:40:59.086Z,2.47
2022-08-17T16:46:00.995Z,2.65
2022-08-17T16:51:04.391Z,2.70
2022-08-17T16:56:07.417Z,2.92
2022-08-17T17:01:09.046Z,2.78
2022-08-17T17:06:41.183Z,2.70
2022-08-17T17:11:45.980Z,3.17
2022-08-17T17:17:03.370Z,2.70
2022-08-17T17:22:42.332Z,2.80
2022-08-17T17:28:06.650Z,3.03
2022-08-17T17:33:17.315Z,2.78
2022-08-17T17:38:23.506Z,3.25
2022-08-17T17:43:40.316Z,4.43
2022-08-17T17:48:42.434Z,4.32
2022-08-17T17:54:08.858Z,3.75
2022-08-17T17:59:44.245Z,3.60
2022-08-17T18:04:58.284Z,3.63
2022-08-17T18:10:13.693Z,3.38
2022-08-17T18:15:37.763Z,3.50
2022-08-17T18:20:53.218Z,3.40
2022-08-17T18:25:58.642Z,3.58
2022-08-17T18:31:18.677Z,3.75
2022-08-17T18:36:29.963Z,3.28
2022-08-17T18:41:40.459Z,3.80
2022-08-17T18:46:42.231Z,3.50
2022-08-17T18:51:43.966Z,3.47
2022-08-17T18:56:56.494Z,3.40
2022-08-17T19:02:28.254Z,3.63
2022-08-17T19:07:45.303Z,3.17
2022-08-17T19:13:00.276Z,3.22
2022-08-17T19:18:20.780Z,3.70
2022-08-17T19:23:31.567Z,3.50
2022-08-17T19:28:48.517Z,5.45
2022-08-17T19:33:51.402Z,3.50
2022-08-17T19:39:17.470Z,3.45
2022-08-17T19:44:19.042Z,3.92
2022-08-17T19:49:23.334Z,3.90
2022-08-17T19:54:40.584Z,4.10
2022-08-17T19:59:49.512Z,3.97
2022-08-17T20:04:52.010Z,4.13
2022-08-17T20:10:04.195Z,3.83
2022-08-17T20:15:15.569Z,3.60
2022-08-17T20:20:46.893Z,4.13
2022-08-17T20:26:21.252Z,4.40
2022-08-17T20:31:41.620Z,4.15
2022-08-17T20:36:58.894Z,4.20
2022-08-17T20:42:15.330Z,4.20
2022-08-17T20:47:31.850Z,4.43
2022-08-17T20:52:45.544Z,4.25
2022-08-17T20:57:48.482Z,4.53
2022-08-17T21:02:51.353Z,4.05
2022-08-17T21:07:56.375Z,4.28
2022-08-17T21:13:15.954Z,4.45
2022-08-17T21:18:41.489Z,3.90
2022-08-17T21:24:07.627Z,5.85
2022-08-17T21:29:29.572Z,4.25
2022-08-17T21:34:43.796Z,4.43
2022-08-17T21:40:18.108Z,4.53
2022-08-17T21:45:22.036Z,4.30
2022-08-17T21:50:25.108Z,4.10
2022-08-17T21:55:30.560Z,4.15
2022-08-17T22:00:32.762Z,4.15
2022-08-17T22:05:37.512Z,4.05
2022-08-17T22:10:42.529Z,3.97
2022-08-17T22:15:48.749Z,4.10
2022-08-17T22:20:58.102Z,4.53
2022-08-17T22:26:05.135Z,4.00
2022-08-17T22:31:09.292Z,3.92
2022-08-17T22:36:30.882Z,4.05
2022-08-17T22:41:50.952Z,4.38
2022-08-17T22:46:58.746Z,4.07
2022-08-17T22:52:07.052Z,4.45
2022-08-17T22:57:31.465Z,4.00
2022-08-17T23:02:35.470Z,3.90
2022-08-17T23:07:52.671Z,4.13
2022-08-17T23:12:56.946Z,3.83
2022-08-17T23:18:05.109Z,4.28
2022-08-17T23:23:07.477Z,3.90
2022-08-17T23:28:09.006Z,4.10
2022-08-17T23:33:26.838Z,3.80
2022-08-17T23:38:28.709Z,5.38
2022-08-17T23:43:31.604Z,6.75
2022-08-17T23:48:36.694Z,6.78
2022-08-17T23:53:42.056Z,5.93
2022-08-17T23:58:44.866Z,5.15
